createdAt,value
2022-12-18T00:01:41.169Z,34.25
2022-12-18T00:04:15.912Z,37.38
2022-12-18T00:06:42.506Z,32.75
2022-12-18T00:09:11.111Z,35.05
2022-12-18T00:11:37.729Z,34.05
2022-12-18T00:14:04.192Z,33.60
2022-12-18T00:16:33.758Z,35.13
2022-12-18T00:19:00.900Z,32.33
2022-12-18T00:21:31.355Z,33.53
2022-12-18T00:23:59.083Z,34.08
2022-12-18T00:26:29.892Z,34.03
2022-12-18T00:29:01.326Z,32.72
2022-12-18T00:31:31.086Z,31.10
2022-12-18T00:33:58.404Z,34.53
2022-12-18T00:36:28.174Z,27.98
2022-12-18T00:38:55.941Z,28.48
2022-12-18T00:41:41.620Z,28.63
2022-12-18T00:44:10.853Z,28.92
2022-12-18T00:46:37.310Z,25.27
2022-12-18T00:49:04.312Z,25.08
2022-12-18T00:51:31.326Z,26.48
2022-12-18T00:53:57.881Z,29.83
2022-12-18T00:56:25.255Z,29.42
2022-12-18T00:58:53.080Z,28.00
2022-12-18T01:01:19.614Z,31.20
2022-12-18T01:03:47.516Z,27.23
2022-12-18T01:06:15.660Z,28.30
2022-12-18T01:08:42.948Z,25.02
2022-12-18T01:11:15.681Z,26.52
2022-12-18T01:13:42.312Z,23.67
2022-12-18T01:16:09.977Z,24.90
2022-12-18T01:18:36.592Z,25.45
2022-12-18T01:21:17.978Z,22.92
2022-12-18T01:26:16.648Z,20.88
2022-12-18T01:28:44.759Z,23.77
2022-12-18T01:31:31.660Z,23.20
2022-12-18T01:34:01.145Z,21.88
2022-12-18T01:36:30.236Z,22.70
2022-12-18T01:38:57.916Z,23.52
2022-12-18T01:41:51.078Z,22.30
2022-12-18T01:44:55.407Z,21.10
2022-12-18T01:47:41.343Z,22.55
2022-12-18T01:50:26.256Z,23.08
2022-12-18T01:52:56.405Z,22.38
2022-12-18T01:55:25.542Z,24.42
2022-12-18T01:57:58.629Z,23.25
2022-12-18T02:00:26.445Z,24.42
2022-12-18T02:02:55.440Z,23.00
2022-12-18T02:05:38.606Z,23.10
2022-12-18T02:08:31.746Z,25.08
2022-12-18T02:10:58.501Z,23.25
2022-12-18T02:13:27.928Z,25.67
2022-12-18T02:16:06.975Z,23.75
2022-12-18T02:18:36.731Z,25.15
2022-12-18T02:21:28.590Z,25.85
2022-12-18T02:24:13.508Z,21.85
2022-12-18T02:26:48.416Z,23.80
2022-12-18T02:29:28.405Z,25.95
2022-12-18T02:31:58.701Z,23.27
2022-12-18T02:34:31.290Z,24.63
2022-12-18T02:37:00.936Z,25.02
2022-12-18T02:39:30.307Z,24.63
2022-12-18T02:42:08.532Z,28.52
2022-12-18T02:44:40.165Z,26.38
2022-12-18T02:47:12.819Z,24.88
2022-12-18T02:50:04.965Z,25.60
2022-12-18T02:52:45.001Z,26.63
2022-12-18T02:55:46.080Z,29.73
2022-12-18T02:58:21.525Z,27.48
2022-12-18T03:01:04.666Z,25.17
2022-12-18T03:03:39.993Z,27.38
2022-12-18T03:06:28.141Z,28.58
2022-12-18T03:09:07.100Z,29.95
2022-12-18T03:11:56.892Z,27.90
2022-12-18T03:14:26.349Z,31.58
2022-12-18T03:16:58.945Z,31.98
2022-12-18T03:19:29.086Z,30.88
2022-12-18T03:22:01.772Z,29.25
2022-12-18T03:24:38.276Z,29.70
2022-12-18T03:27:10.099Z,33.55
2022-12-18T03:29:43.468Z,28.77
2022-12-18T03:32:20.050Z,26.58
2022-12-18T03:34:49.993Z,34.38
2022-12-18T03:39:44.526Z,28.55
2022-12-18T03:42:23.317Z,32.50
2022-12-18T03:45:07.258Z,28.33
2022-12-18T03:47:50.648Z,29.52
2022-12-18T03:50:30.681Z,29.75
2022-12-18T03:53:06.322Z,30.05
2022-12-18T03:55:35.490Z,31.10
2022-12-18T03:58:08.341Z,31.92
2022-12-18T04:00:50.701Z,29.08
2022-12-18T04:03:22.701Z,32.80
2022-12-18T04:05:56.347Z,33.58
2022-12-18T04:08:24.496Z,31.80
2022-12-18T04:11:00.554Z,30.85
2022-12-18T04:13:34.999Z,29.23
2022-12-18T04:16:03.932Z,32.20
2022-12-18T04:18:30.993Z,33.85
2022-12-18T04:20:57.530Z,29.40
2022-12-18T04:23:25.088Z,33.80
2022-12-18T04:25:53.857Z,30.90
2022-12-18T04:28:33.576Z,30.38
2022-12-18T04:31:00.377Z,32.58
2022-12-18T04:33:27.997Z,30.40
2022-12-18T04:35:54.631Z,32.70
2022-12-18T04:38:21.118Z,30.58
2022-12-18T04:40:54.133Z,29.83
2022-12-18T04:43:26.018Z,29.45
2022-12-18T04:45:52.481Z,31.27
2022-12-18T04:48:18.979Z,31.15
2022-12-18T04:50:45.387Z,31.42
2022-12-18T04:53:11.822Z,29.50
2022-12-18T04:55:38.225Z,28.65
2022-12-18T04:58:05.270Z,32.25
2022-12-18T05:00:31.710Z,28.23
2022-12-18T05:02:58.232Z,30.88
2022-12-18T05:05:24.817Z,29.67
2022-12-18T05:07:51.204Z,31.17
2022-12-18T05:10:17.686Z,31.30
2022-12-18T05:13:04.402Z,31.38
2022-12-18T05:15:32.326Z,29.58
2022-12-18T05:17:59.861Z,32.97
2022-12-18T05:20:27.472Z,30.70
2022-12-18T05:22:54.257Z,29.85
2022-12-18T05:25:21.514Z,32.15
2022-12-18T05:27:48.407Z,29.95
2022-12-18T05:30:15.326Z,30.65
2022-12-18T05:32:41.981Z,30.73
2022-12-18T05:35:10.532Z,28.80
2022-12-18T05:37:42.517Z,32.67
2022-12-18T05:40:10.319Z,33.35
2022-12-18T05:42:36.736Z,31.95
2022-12-18T05:45:03.594Z,32.90
2022-12-18T05:47:30.099Z,31.20
2022-12-18T05:49:56.641Z,33.88
2022-12-18T05:52:23.738Z,34.42
2022-12-18T05:54:50.212Z,32.53
2022-12-18T05:57:16.655Z,29.85
2022-12-18T05:59:43.077Z,30.90
2022-12-18T06:02:09.611Z,31.05
2022-12-18T06:04:36.173Z,30.80
2022-12-18T06:07:03.898Z,32.47
2022-12-18T06:09:30.544Z,30.00
2022-12-18T06:11:56.990Z,29.83
2022-12-18T06:14:23.422Z,30.35
2022-12-18T06:16:52.868Z,32.65
2022-12-18T06:19:19.299Z,30.73
2022-12-18T06:21:45.746Z,30.27
2022-12-18T06:24:12.211Z,28.50
2022-12-18T06:26:39.902Z,29.35
2022-12-18T06:29:07.095Z,32.50
2022-12-18T06:31:33.735Z,30.92
2022-12-18T06:34:02.653Z,29.58
2022-12-18T06:36:30.654Z,29.25
2022-12-18T06:38:58.488Z,28.00
2022-12-18T06:41:25.175Z,30.58
2022-12-18T06:43:55.586Z,31.02
2022-12-18T06:46:24.679Z,27.77
2022-12-18T06:48:51.647Z,28.75
2022-12-18T06:51:20.105Z,33.00
2022-12-18T06:53:46.808Z,30.92
2022-12-18T06:56:13.482Z,28.80
2022-12-18T06:58:40.610Z,30.00
2022-12-18T07:01:09.846Z,26.92
2022-12-18T07:03:37.208Z,27.92
2022-12-18T07:06:04.593Z,27.60
2022-12-18T07:08:32.458Z,25.30
2022-12-18T07:10:59.056Z,22.63
2022-12-18T07:13:25.813Z,25.90
2022-12-18T07:15:52.236Z,25.83
2022-12-18T07:18:18.641Z,32.35
2022-12-18T07:20:45.138Z,22.58
2022-12-18T07:23:12.448Z,23.30
2022-12-18T07:25:38.952Z,25.70
2022-12-18T07:28:05.582Z,26.95
2022-12-18T07:30:32.251Z,24.40
2022-12-18T07:32:58.646Z,23.00
2022-12-18T07:35:25.612Z,26.05
2022-12-18T07:37:52.295Z,30.30
2022-12-18T07:40:19.053Z,22.27
2022-12-18T07:42:45.476Z,23.15
2022-12-18T07:45:11.915Z,22.55
2022-12-18T07:47:38.654Z,20.80
2022-12-18T07:50:07.028Z,21.20
2022-12-18T07:52:33.553Z,22.52
2022-12-18T07:55:00.567Z,23.33
2022-12-18T07:57:49.377Z,26.40
2022-12-18T08:00:14.137Z,24.20
2022-12-18T08:02:40.755Z,22.08
2022-12-18T08:05:09.289Z,22.40
2022-12-18T08:07:35.718Z,22.15
2022-12-18T08:10:02.148Z,23.63
2022-12-18T08:12:28.592Z,23.77
2022-12-18T08:14:55.005Z,23.35
2022-12-18T08:17:21.506Z,21.77
2022-12-18T08:19:47.903Z,23.95
2022-12-18T08:22:14.342Z,19.77
2022-12-18T08:24:40.801Z,23.15
2022-12-18T08:27:28.349Z,22.38
2022-12-18T08:29:53.631Z,21.98
2022-12-18T08:32:20.204Z,24.20
2022-12-18T08:34:46.693Z,25.60
2022-12-18T08:37:13.358Z,24.23
2022-12-18T08:39:39.774Z,22.90
2022-12-18T08:42:24.949Z,21.17
2022-12-18T08:44:51.370Z,20.60
2022-12-18T08:47:17.792Z,22.10
2022-12-18T08:49:44.270Z,21.52
2022-12-18T08:52:10.718Z,21.70
2022-12-18T08:54:37.126Z,20.88
2022-12-18T08:57:03.643Z,21.65
2022-12-18T08:59:30.129Z,23.02
2022-12-18T09:01:56.717Z,19.27
2022-12-18T09:04:23.509Z,24.52
2022-12-18T09:06:50.403Z,20.92
2022-12-18T09:09:16.826Z,21.63
2022-12-18T09:11:43.506Z,20.10
2022-12-18T09:14:10.506Z,18.40
2022-12-18T09:16:37.166Z,21.52
2022-12-18T09:19:05.312Z,21.63
2022-12-18T09:21:36.737Z,23.55
2022-12-18T09:24:05.236Z,22.30
2022-12-18T09:26:35.448Z,20.85
2022-12-18T09:29:03.503Z,20.98
2022-12-18T09:31:29.929Z,21.00
2022-12-18T09:33:57.642Z,21.40
2022-12-18T09:36:24.314Z,22.20
2022-12-18T09:38:50.788Z,21.27
2022-12-18T09:41:41.344Z,19.60
2022-12-18T09:44:33.743Z,21.07
2022-12-18T09:47:15.521Z,19.63
2022-12-18T09:49:45.474Z,22.90
2022-12-18T09:52:19.094Z,20.45
2022-12-18T09:54:52.944Z,20.15
2022-12-18T09:57:24.039Z,22.02
2022-12-18T10:00:03.819Z,22.35
2022-12-18T10:02:38.334Z,21.98
2022-12-18T10:05:12.928Z,21.80
2022-12-18T10:07:58.847Z,21.25
2022-12-18T10:10:38.501Z,21.30
2022-12-18T10:13:27.762Z,21.10
2022-12-18T10:16:12.825Z,23.42
2022-12-18T10:19:18.270Z,20.35
2022-12-18T10:22:23.529Z,21.83
2022-12-18T10:25:46.416Z,22.08
2022-12-18T10:28:18.178Z,23.45
2022-12-18T10:30:45.260Z,21.55
2022-12-18T10:33:16.887Z,24.60
2022-12-18T10:35:44.192Z,22.67
2022-12-18T10:38:13.420Z,24.98
2022-12-18T10:41:04.989Z,21.35
2022-12-18T10:43:36.821Z,24.40
2022-12-18T10:46:09.329Z,22.75
2022-12-18T10:48:49.329Z,23.38
2022-12-18T10:51:25.430Z,24.58
2022-12-18T10:53:56.086Z,25.13
2022-12-18T10:56:24.720Z,22.77
2022-12-18T10:59:02.739Z,24.40
2022-12-18T11:01:46.053Z,21.75
2022-12-18T11:04:18.478Z,23.30
2022-12-18T11:07:04.156Z,23.60
2022-12-18T11:09:40.934Z,23.52
2022-12-18T11:12:19.481Z,22.35
2022-12-18T11:14:50.372Z,21.60
2022-12-18T11:17:26.153Z,22.90
2022-12-18T11:19:55.237Z,22.52
2022-12-18T11:22:27.235Z,23.83
2022-12-18T11:25:33.316Z,27.00
2022-12-18T11:28:25.600Z,22.23
2022-12-18T11:31:10.409Z,24.13
2022-12-18T11:33:49.387Z,23.35
2022-12-18T11:36:26.677Z,26.42
2022-12-18T11:38:56.473Z,24.90
2022-12-18T11:41:50.512Z,23.58
2022-12-18T11:44:25.986Z,22.50
2022-12-18T11:47:10.238Z,25.45
2022-12-18T11:49:37.107Z,25.33
2022-12-18T11:52:25.136Z,21.67
2022-12-18T11:54:54.004Z,23.25
2022-12-18T11:57:40.313Z,22.70
2022-12-18T12:00:22.864Z,23.98
2022-12-18T12:03:07.600Z,24.98
2022-12-18T12:05:46.110Z,21.83
2022-12-18T12:08:33.614Z,22.05
2022-12-18T12:11:23.617Z,23.48
2022-12-18T12:14:05.323Z,20.23
2022-12-18T12:16:59.999Z,23.77
2022-12-18T12:19:37.882Z,24.52
2022-12-18T12:22:29.174Z,22.50
2022-12-18T12:25:10.535Z,22.42
2022-12-18T12:30:27.118Z,20.65
2022-12-18T12:33:07.216Z,22.23
2022-12-18T12:35:57.858Z,22.25
2022-12-18T12:38:29.132Z,20.53
2022-12-18T12:41:30.002Z,19.95
2022-12-18T12:44:00.843Z,20.65
2022-12-18T12:46:28.758Z,20.83
2022-12-18T12:49:05.198Z,22.52
2022-12-18T12:51:44.409Z,20.58
2022-12-18T12:54:22.385Z,22.35
2022-12-18T12:57:00.956Z,21.85
2022-12-18T12:59:59.169Z,23.85
2022-12-18T13:02:56.039Z,21.52
2022-12-18T13:05:34.724Z,21.70
2022-12-18T13:08:08.339Z,25.55
2022-12-18T13:10:40.728Z,22.15
2022-12-18T13:13:11.093Z,21.95
2022-12-18T13:16:06.118Z,20.97
2022-12-18T13:18:34.246Z,20.88
2022-12-18T13:21:03.351Z,22.08
2022-12-18T13:23:43.328Z,19.60
2022-12-18T13:26:23.375Z,19.73
2022-12-18T13:28:55.451Z,19.55
2022-12-18T13:31:30.751Z,21.02
2022-12-18T13:34:27.420Z,19.98
2022-12-18T13:36:56.649Z,20.17
2022-12-18T13:39:32.780Z,17.27
2022-12-18T13:42:07.146Z,18.55
2022-12-18T13:44:41.586Z,20.98
2022-12-18T13:47:32.515Z,19.50
2022-12-18T13:49:59.602Z,19.20
2022-12-18T13:52:29.486Z,18.30
2022-12-18T13:54:58.810Z,22.85
2022-12-18T13:57:39.440Z,18.98
2022-12-18T14:00:29.504Z,19.67
2022-12-18T14:02:57.487Z,18.00
2022-12-18T14:05:26.231Z,18.48
2022-12-18T14:07:53.777Z,19.35
2022-12-18T14:13:11.346Z,18.40
2022-12-18T14:15:44.443Z,19.48
2022-12-18T14:18:26.126Z,19.58
2022-12-18T14:20:56.647Z,21.67
2022-12-18T14:23:32.902Z,21.30
2022-12-18T14:26:05.447Z,18.95
2022-12-18T14:28:32.774Z,22.17
2022-12-18T14:30:59.350Z,19.58
2022-12-18T14:33:27.902Z,21.70
2022-12-18T14:35:54.342Z,19.42
2022-12-18T14:38:24.585Z,19.88
2022-12-18T14:40:58.678Z,20.58
2022-12-18T14:43:25.774Z,20.75
2022-12-18T14:45:52.685Z,21.40
2022-12-18T14:48:34.516Z,20.05
2022-12-18T14:51:03.477Z,21.83
2022-12-18T14:53:42.201Z,21.50
2022-12-18T14:56:29.989Z,20.40
2022-12-18T14:59:18.049Z,19.42
2022-12-18T15:01:57.977Z,20.02
2022-12-18T15:04:32.284Z,20.77
2022-12-18T15:07:20.079Z,20.08
2022-12-18T15:10:04.724Z,20.38
2022-12-18T15:12:44.896Z,21.10
2022-12-18T15:15:40.461Z,21.30
2022-12-18T15:18:11.306Z,20.50
2022-12-18T15:20:54.288Z,20.52
2022-12-18T15:23:39.005Z,20.77
2022-12-18T15:26:13.904Z,18.95
2022-12-18T15:28:46.689Z,21.30
2022-12-18T15:31:13.161Z,20.58
2022-12-18T15:33:46.981Z,21.30
2022-12-18T15:36:17.993Z,19.55
2022-12-18T15:38:49.621Z,20.27
2022-12-18T15:41:24.200Z,22.90
2022-12-18T15:43:54.317Z,21.85
2022-12-18T15:46:26.261Z,19.00
2022-12-18T15:49:01.797Z,20.48
2022-12-18T15:51:32.647Z,20.52
2022-12-18T15:54:01.852Z,19.85
2022-12-18T15:56:47.104Z,20.00
2022-12-18T15:59:19.980Z,21.90
2022-12-18T16:01:48.841Z,21.17
2022-12-18T16:04:17.669Z,20.27
2022-12-18T16:07:13.329Z,21.65
2022-12-18T16:09:30.743Z,22.23
2022-12-18T16:11:57.194Z,21.35
2022-12-18T16:14:26.925Z,21.35
2022-12-18T16:17:02.763Z,24.85
2022-12-18T16:19:30.428Z,21.75
2022-12-18T16:21:58.732Z,21.20
2022-12-18T16:24:28.236Z,22.73
2022-12-18T16:26:56.531Z,25.48
2022-12-18T16:29:27.785Z,22.50
2022-12-18T16:34:29.598Z,29.95
2022-12-18T16:37:06.014Z,66.20
2022-12-18T16:39:34.949Z,43.92
2022-12-18T16:42:07.418Z,28.45
2022-12-18T16:44:34.932Z,29.73
2022-12-18T16:47:03.813Z,27.83
2022-12-18T16:49:30.799Z,25.88
2022-12-18T16:51:57.744Z,28.45
2022-12-18T16:54:24.289Z,21.23
2022-12-18T16:56:51.847Z,25.75
2022-12-18T16:59:18.492Z,21.48
2022-12-18T17:01:45.061Z,23.55
2022-12-18T17:04:11.864Z,23.55
2022-12-18T17:06:45.485Z,26.20
2022-12-18T17:09:15.291Z,22.02
2022-12-18T17:11:42.249Z,23.48
2022-12-18T17:14:12.458Z,23.63
2022-12-18T17:16:39.011Z,23.08
2022-12-18T17:19:09.753Z,23.48
2022-12-18T17:21:40.186Z,25.45
2022-12-18T17:24:07.459Z,24.40
2022-12-18T17:26:33.923Z,24.23
2022-12-18T17:29:00.632Z,23.35
2022-12-18T17:31:30.095Z,27.77
2022-12-18T17:33:57.850Z,25.42
2022-12-18T17:36:24.944Z,24.65
2022-12-18T17:38:55.024Z,25.48
2022-12-18T17:41:21.787Z,26.58
2022-12-18T17:43:55.283Z,29.67
2022-12-18T17:46:22.549Z,26.58
2022-12-18T17:48:49.044Z,23.83
2022-12-18T17:51:16.834Z,25.52
2022-12-18T17:53:44.182Z,30.40
2022-12-18T17:56:15.661Z,25.25
2022-12-18T17:58:42.956Z,30.42
2022-12-18T18:01:12.612Z,24.13
2022-12-18T18:03:41.760Z,24.33
2022-12-18T18:06:09.157Z,25.08
2022-12-18T18:08:36.394Z,25.75
2022-12-18T18:11:33.593Z,23.83
2022-12-18T18:14:04.124Z,22.48
2022-12-18T18:16:34.215Z,20.38
2022-12-18T18:19:02.954Z,23.23
2022-12-18T18:21:30.119Z,23.15
2022-12-18T18:23:59.841Z,24.48
2022-12-18T18:26:29.160Z,20.45
2022-12-18T18:28:57.105Z,21.10
2022-12-18T18:31:23.856Z,21.65
2022-12-18T18:33:51.261Z,21.83
2022-12-18T18:36:17.845Z,19.85
2022-12-18T18:38:48.394Z,23.35
2022-12-18T18:41:15.782Z,22.20
2022-12-18T18:43:42.608Z,21.77
2022-12-18T18:46:12.999Z,20.08
2022-12-18T18:48:40.237Z,20.17
2022-12-18T18:51:14.670Z,24.30
2022-12-18T18:53:49.361Z,21.45
2022-12-18T18:59:05.275Z,21.65
2022-12-18T19:01:31.813Z,23.38
2022-12-18T19:03:58.305Z,21.27
2022-12-18T19:06:27.569Z,26.38
2022-12-18T19:08:56.140Z,22.23
2022-12-18T19:11:44.073Z,21.10
2022-12-18T19:14:13.557Z,22.33
2022-12-18T19:16:40.518Z,21.65
2022-12-18T19:19:07.458Z,22.65
2022-12-18T19:21:34.908Z,21.05
2022-12-18T19:24:02.592Z,22.85
2022-12-18T19:26:29.668Z,23.60
2022-12-18T19:29:04.058Z,21.85
2022-12-18T19:31:35.571Z,21.42
2022-12-18T19:34:07.270Z,23.10
2022-12-18T19:36:39.149Z,21.38
2022-12-18T19:39:11.625Z,22.35
2022-12-18T19:41:39.350Z,21.25
2022-12-18T19:44:08.266Z,22.67
2022-12-18T19:46:35.692Z,25.02
2022-12-18T19:49:02.342Z,23.10
2022-12-18T19:51:31.067Z,22.77
2022-12-18T19:54:01.162Z,23.63
2022-12-18T19:56:31.437Z,22.20
2022-12-18T19:58:58.285Z,22.13
2022-12-18T20:01:26.321Z,25.02
2022-12-18T20:03:54.473Z,25.75
2022-12-18T20:06:51.842Z,25.20
2022-12-18T20:09:19.237Z,24.30
2022-12-18T20:11:47.189Z,24.90
2022-12-18T20:14:18.760Z,24.38
2022-12-18T20:16:50.616Z,23.92
2022-12-18T20:19:17.408Z,24.88
2022-12-18T20:21:43.939Z,24.88
2022-12-18T20:24:10.461Z,24.17
2022-12-18T20:26:36.979Z,23.40
2022-12-18T20:29:03.486Z,23.90
2022-12-18T20:31:30.246Z,24.33
2022-12-18T20:34:00.169Z,20.95
2022-12-18T20:38:59.198Z,20.15
2022-12-18T20:41:28.183Z,23.98
2022-12-18T20:44:04.699Z,21.88
2022-12-18T20:46:31.158Z,23.92
2022-12-18T20:48:57.856Z,23.17
2022-12-18T20:51:24.389Z,21.85
2022-12-18T20:53:51.002Z,23.15
2022-12-18T20:56:21.667Z,21.88
2022-12-18T20:58:49.546Z,21.73
2022-12-18T21:01:19.275Z,23.08
2022-12-18T21:03:47.184Z,23.13
2022-12-18T21:06:15.999Z,21.70
2022-12-18T21:08:42.881Z,22.15
2022-12-18T21:11:32.038Z,21.15
2022-12-18T21:13:59.034Z,19.73
2022-12-18T21:16:25.962Z,20.42
2022-12-18T21:18:52.697Z,23.73
2022-12-18T21:21:26.181Z,20.13
2022-12-18T21:23:53.708Z,19.50
2022-12-18T21:26:22.980Z,22.13
2022-12-18T21:29:01.013Z,23.17
2022-12-18T21:31:30.402Z,20.95
2022-12-18T21:34:00.944Z,21.40
2022-12-18T21:36:30.008Z,20.00
2022-12-18T21:38:57.652Z,22.05
2022-12-18T21:41:44.587Z,21.13
2022-12-18T21:44:13.381Z,20.55
2022-12-18T21:46:45.783Z,19.70
2022-12-18T21:49:17.319Z,20.45
2022-12-18T21:51:45.023Z,21.17
2022-12-18T21:54:11.693Z,21.50
2022-12-18T21:57:04.376Z,21.88
2022-12-18T21:59:32.458Z,21.48
2022-12-18T22:02:01.009Z,22.67
2022-12-18T22:04:27.842Z,21.67
2022-12-18T22:06:55.265Z,22.35
2022-12-18T22:09:23.517Z,21.40
2022-12-18T22:11:51.297Z,24.13
2022-12-18T22:14:17.848Z,23.38
2022-12-18T22:16:44.272Z,23.27
2022-12-18T22:19:12.565Z,24.35
2022-12-18T22:21:43.326Z,23.05
2022-12-18T22:24:26.926Z,22.70
2022-12-18T22:27:01.977Z,24.80
2022-12-18T22:29:47.033Z,21.27
2022-12-18T22:32:16.858Z,22.05
2022-12-18T22:34:49.850Z,22.55
2022-12-18T22:37:16.285Z,22.10
2022-12-18T22:39:42.773Z,22.23
2022-12-18T22:42:09.864Z,22.92
2022-12-18T22:44:36.269Z,21.70
2022-12-18T22:47:06.240Z,22.30
2022-12-18T22:49:34.849Z,21.23
2022-12-18T22:52:03.350Z,21.10
2022-12-18T22:54:29.848Z,20.52
2022-12-18T22:56:57.127Z,21.63
2022-12-18T22:59:24.022Z,23.20
2022-12-18T23:01:58.754Z,25.13
2022-12-18T23:04:31.212Z,21.13
2022-12-18T23:07:03.949Z,22.25
2022-12-18T23:09:30.383Z,21.65
2022-12-18T23:11:57.630Z,22.63
2022-12-18T23:14:24.081Z,24.45
2022-12-18T23:16:52.206Z,22.70
2022-12-18T23:19:19.602Z,22.00
2022-12-18T23:21:46.306Z,23.13
2022-12-18T23:24:12.916Z,22.90
2022-12-18T23:26:39.399Z,22.55
2022-12-18T23:29:06.257Z,22.90
2022-12-18T23:31:38.474Z,21.33
2022-12-18T23:34:06.289Z,22.02
2022-12-18T23:36:46.188Z,21.83
2022-12-18T23:39:17.175Z,21.90
2022-12-18T23:41:56.075Z,21.60
2022-12-18T23:44:22.513Z,21.13
2022-12-18T23:46:49.079Z,25.33
2022-12-18T23:49:15.610Z,21.38
2022-12-18T23:51:42.044Z,22.88
2022-12-18T23:54:09.888Z,24.55
2022-12-18T23:56:36.377Z,21.75
2022-12-18T23:59:02.968Z,20.98
